sensor_id;sensor_type;location;lat;lon;timestamp;pressure;altitude;pressure_sealevel;temperature;humidity
70407;BME280;57821;52.202;0.154;2023-05-21T00:00:43;102356.72;;;10.46;70.86
70407;BME280;57821;52.202;0.154;2023-05-21T00:03:09;102359.28;;;10.44;71.16
70407;BME280;57821;52.202;0.154;2023-05-21T00:05:36;102358.34;;;10.41;71.13
70407;BME280;57821;52.202;0.154;2023-05-21T00:08:03;102357.47;;;10.40;70.88
70407;BME280;57821;52.202;0.154;2023-05-21T00:10:30;102358.31;;;10.39;71.29
70407;BME280;57821;52.202;0.154;2023-05-21T00:12:57;102357.38;;;10.37;71.14
70407;BME280;57821;52.202;0.154;2023-05-21T00:15:23;102359.09;;;10.35;71.68
70407;BME280;57821;52.202;0.154;2023-05-21T00:17:50;102360.75;;;10.33;71.61
70407;BME280;57821;52.202;0.154;2023-05-21T00:20:16;102352.03;;;10.29;72.00
70407;BME280;57821;52.202;0.154;2023-05-21T00:22:43;102356.31;;;10.27;72.24
70407;BME280;57821;52.202;0.154;2023-05-21T00:25:10;102348.50;;;10.26;72.98
70407;BME280;57821;52.202;0.154;2023-05-21T00:27:37;102350.19;;;10.24;72.58
70407;BME280;57821;52.202;0.154;2023-05-21T00:30:05;102355.34;;;10.22;72.88
70407;BME280;57821;52.202;0.154;2023-05-21T00:32:31;102339.69;;;10.18;72.86
70407;BME280;57821;52.202;0.154;2023-05-21T00:34:58;102348.28;;;10.17;72.87
70407;BME280;57821;52.202;0.154;2023-05-21T00:37:25;102346.44;;;10.14;73.13
70407;BME280;57821;52.202;0.154;2023-05-21T00:39:51;102337.75;;;10.11;73.44
70407;BME280;57821;52.202;0.154;2023-05-21T00:42:18;102332.47;;;10.08;73.37
70407;BME280;57821;52.202;0.154;2023-05-21T00:44:44;102330.75;;;10.07;73.46
70407;BME280;57821;52.202;0.154;2023-05-21T00:47:12;102338.53;;;10.07;73.74
70407;BME280;57821;52.202;0.154;2023-05-21T00:49:39;102345.38;;;10.05;73.82
70407;BME280;57821;52.202;0.154;2023-05-21T00:52:06;102334.09;;;10.03;74.34
70407;BME280;57821;52.202;0.154;2023-05-21T00:54:32;102329.69;;;9.99;74.62
70407;BME280;57821;52.202;0.154;2023-05-21T00:57:00;102323.47;;;9.92;74.56
70407;BME280;57821;52.202;0.154;2023-05-21T00:59:28;102327.03;;;9.96;74.96
70407;BME280;57821;52.202;0.154;2023-05-21T01:01:55;102316.59;;;9.93;75.26
70407;BME280;57821;52.202;0.154;2023-05-21T01:04:22;102323.53;;;9.94;75.06
70407;BME280;57821;52.202;0.154;2023-05-21T01:06:49;102325.19;;;9.92;75.16
70407;BME280;57821;52.202;0.154;2023-05-21T01:09:16;102335.56;;;9.92;75.22
70407;BME280;57821;52.202;0.154;2023-05-21T01:11:46;102323.44;;;9.90;75.49
70407;BME280;57821;52.202;0.154;2023-05-21T01:14:14;102330.31;;;9.88;75.87
70407;BME280;57821;52.202;0.154;2023-05-21T01:16:43;102320.63;;;9.81;76.24
70407;BME280;57821;52.202;0.154;2023-05-21T01:19:14;102312.78;;;9.78;75.81
70407;BME280;57821;52.202;0.154;2023-05-21T01:21:44;102327.63;;;9.84;75.99
70407;BME280;57821;52.202;0.154;2023-05-21T01:24:13;102318.78;;;9.76;75.82
70407;BME280;57821;52.202;0.154;2023-05-21T01:26:41;102326.66;;;9.80;76.24
70407;BME280;57821;52.202;0.154;2023-05-21T01:29:07;102324.00;;;9.77;76.07
70407;BME280;57821;52.202;0.154;2023-05-21T01:34:30;102336.84;;;9.74;76.55
70407;BME280;57821;52.202;0.154;2023-05-21T01:37:44;102327.22;;;9.69;76.93
70407;BME280;57821;52.202;0.154;2023-05-21T01:40:54;102325.28;;;9.60;77.00
70407;BME280;57821;52.202;0.154;2023-05-21T01:43:22;102333.94;;;9.61;76.23
70407;BME280;57821;52.202;0.154;2023-05-21T01:45:51;102318.97;;;9.49;76.19
70407;BME280;57821;52.202;0.154;2023-05-21T01:48:19;102334.56;;;9.52;76.88
70407;BME280;57821;52.202;0.154;2023-05-21T01:50:47;102336.28;;;9.52;76.51
70407;BME280;57821;52.202;0.154;2023-05-21T01:53:15;102343.09;;;9.48;76.23
70407;BME280;57821;52.202;0.154;2023-05-21T01:55:41;102344.78;;;9.46;76.43
70407;BME280;57821;52.202;0.154;2023-05-21T01:58:08;102349.88;;;9.43;76.70
70407;BME280;57821;52.202;0.154;2023-05-21T02:00:35;102349.72;;;9.37;76.58
70407;BME280;57821;52.202;0.154;2023-05-21T02:03:01;102349.63;;;9.34;76.38
70407;BME280;57821;52.202;0.154;2023-05-21T02:05:28;102347.81;;;9.30;76.82
70407;BME280;57821;52.202;0.154;2023-05-21T02:07:55;102337.34;;;9.27;76.99
70407;BME280;57821;52.202;0.154;2023-05-21T02:10:21;102337.28;;;9.24;77.09
70407;BME280;57821;52.202;0.154;2023-05-21T02:12:48;102337.16;;;9.19;77.61
70407;BME280;57821;52.202;0.154;2023-05-21T02:15:15;102333.69;;;9.19;77.66
70407;BME280;57821;52.202;0.154;2023-05-21T02:17:41;102326.66;;;9.15;77.72
70407;BME280;57821;52.202;0.154;2023-05-21T02:20:10;102326.66;;;9.15;77.18
70407;BME280;57821;52.202;0.154;2023-05-21T02:22:39;102326.59;;;9.12;77.26
70407;BME280;57821;52.202;0.154;2023-05-21T02:25:07;102328.31;;;9.11;77.60
70407;BME280;57821;52.202;0.154;2023-05-21T02:27:35;102331.66;;;9.08;77.86
70407;BME280;57821;52.202;0.154;2023-05-21T02:30:04;102330.78;;;9.06;78.16
70407;BME280;57821;52.202;0.154;2023-05-21T02:32:31;102334.13;;;9.04;78.28
70407;BME280;57821;52.202;0.154;2023-05-21T02:34:58;102329.78;;;9.01;78.68
70407;BME280;57821;52.202;0.154;2023-05-21T02:37:25;102332.25;;;8.98;78.59
70407;BME280;57821;52.202;0.154;2023-05-21T02:39:55;102333.03;;;8.94;78.94
70407;BME280;57821;52.202;0.154;2023-05-21T02:42:22;102327.75;;;8.91;79.21
70407;BME280;57821;52.202;0.154;2023-05-21T02:44:50;102330.25;;;8.88;79.12
70407;BME280;57821;52.202;0.154;2023-05-21T02:47:18;102327.56;;;8.85;79.11
70407;BME280;57821;52.202;0.154;2023-05-21T02:49:45;102324.09;;;8.83;79.44
70407;BME280;57821;52.202;0.154;2023-05-21T02:52:12;102326.69;;;8.83;79.80
70407;BME280;57821;52.202;0.154;2023-05-21T02:54:39;102325.75;;;8.81;79.81
70407;BME280;57821;52.202;0.154;2023-05-21T02:57:05;102329.13;;;8.79;79.77
70407;BME280;57821;52.202;0.154;2023-05-21T02:59:32;102330.84;;;8.78;80.30
70407;BME280;57821;52.202;0.154;2023-05-21T03:02:00;102323.88;;;8.76;79.85
70407;BME280;57821;52.202;0.154;2023-05-21T03:04:26;102320.41;;;8.75;80.17
70407;BME280;57821;52.202;0.154;2023-05-21T03:06:55;102325.56;;;8.75;80.02
70407;BME280;57821;52.202;0.154;2023-05-21T03:09:22;102313.28;;;8.68;80.28
70407;BME280;57821;52.202;0.154;2023-05-21T03:11:49;102315.09;;;8.71;80.32
70407;BME280;57821;52.202;0.154;2023-05-21T03:14:16;102315.03;;;8.69;80.30
70407;BME280;57821;52.202;0.154;2023-05-21T03:16:42;102307.16;;;8.64;80.00
70407;BME280;57821;52.202;0.154;2023-05-21T03:19:10;102308.03;;;8.65;79.99
70407;BME280;57821;52.202;0.154;2023-05-21T03:21:37;102301.94;;;8.63;80.51
70407;BME280;57821;52.202;0.154;2023-05-21T03:24:04;102301.03;;;8.61;80.79
70407;BME280;57821;52.202;0.154;2023-05-21T03:26:31;102294.00;;;8.57;80.67
70407;BME280;57821;52.202;0.154;2023-05-21T03:28:58;102299.19;;;8.57;80.10
70407;BME280;57821;52.202;0.154;2023-05-21T03:31:26;102296.47;;;8.52;80.95
70407;BME280;57821;52.202;0.154;2023-05-21T03:34:03;102300.75;;;8.52;80.96
70407;BME280;57821;52.202;0.154;2023-05-21T03:36:30;102305.88;;;8.50;80.50
70407;BME280;57821;52.202;0.154;2023-05-21T03:38:57;102303.28;;;8.49;81.03
70407;BME280;57821;52.202;0.154;2023-05-21T03:41:23;102304.03;;;8.46;81.10
70407;BME280;57821;52.202;0.154;2023-05-21T03:43:55;102308.34;;;8.46;82.75
70407;BME280;57821;52.202;0.154;2023-05-21T03:46:25;102313.50;;;8.46;81.52
70407;BME280;57821;52.202;0.154;2023-05-21T03:49:21;102313.44;;;8.43;81.10
70407;BME280;57821;52.202;0.154;2023-05-21T03:51:51;102309.09;;;8.42;81.28
70407;BME280;57821;52.202;0.154;2023-05-21T03:54:21;102305.56;;;8.40;81.80
70407;BME280;57821;52.202;0.154;2023-05-21T03:56:50;102303.81;;;8.39;82.20
70407;BME280;57821;52.202;0.154;2023-05-21T03:59:17;102307.25;;;8.38;82.08
70407;BME280;57821;52.202;0.154;2023-05-21T04:01:45;102308.84;;;8.34;82.11
70407;BME280;57821;52.202;0.154;2023-05-21T04:04:14;102317.47;;;8.35;82.26
70407;BME280;57821;52.202;0.154;2023-05-21T04:06:41;102312.22;;;8.32;82.76
70407;BME280;57821;52.202;0.154;2023-05-21T04:09:09;102315.72;;;8.34;83.17
70407;BME280;57821;52.202;0.154;2023-05-21T04:11:35;102313.13;;;8.32;83.55
70407;BME280;57821;52.202;0.154;2023-05-21T04:14:02;102319.16;;;8.33;83.42
70407;BME280;57821;52.202;0.154;2023-05-21T04:16:28;102321.69;;;8.31;83.28
70407;BME280;57821;52.202;0.154;2023-05-21T04:18:55;102316.53;;;8.31;83.64
70407;BME280;57821;52.202;0.154;2023-05-21T04:21:25;102312.22;;;8.32;83.26
70407;BME280;57821;52.202;0.154;2023-05-21T04:23:51;102310.56;;;8.34;83.58
70407;BME280;57821;52.202;0.154;2023-05-21T04:26:28;102308.84;;;8.34;83.08
70407;BME280;57821;52.202;0.154;2023-05-21T04:28:56;102317.47;;;8.35;84.03
70407;BME280;57821;52.202;0.154;2023-05-21T04:31:22;102310.66;;;8.37;83.17
70407;BME280;57821;52.202;0.154;2023-05-21T04:33:49;102313.25;;;8.37;83.14
70407;BME280;57821;52.202;0.154;2023-05-21T04:36:15;102314.16;;;8.39;83.72
70407;BME280;57821;52.202;0.154;2023-05-21T04:38:43;102318.50;;;8.40;83.71
70407;BME280;57821;52.202;0.154;2023-05-21T04:41:09;102317.66;;;8.41;83.75
70407;BME280;57821;52.202;0.154;2023-05-21T04:43:36;102320.34;;;8.44;83.99
70407;BME280;57821;52.202;0.154;2023-05-21T04:46:03;102325.53;;;8.45;83.62
70407;BME280;57821;52.202;0.154;2023-05-21T04:48:30;102323.00;;;8.47;84.34
70407;BME280;57821;52.202;0.154;2023-05-21T04:50:56;102324.78;;;8.48;84.11
70407;BME280;57821;52.202;0.154;2023-05-21T04:53:23;102337.00;;;8.53;84.39
70407;BME280;57821;52.202;0.154;2023-05-21T04:55:50;102330.19;;;8.57;84.38
70407;BME280;57821;52.202;0.154;2023-05-21T04:58:17;102329.50;;;8.62;84.70
70407;BME280;57821;52.202;0.154;2023-05-21T05:00:45;102327.97;;;8.69;85.21
70407;BME280;57821;52.202;0.154;2023-05-21T05:03:12;102331.66;;;8.77;84.64
70407;BME280;57821;52.202;0.154;2023-05-21T05:05:39;102326.69;;;8.83;84.48
70407;BME280;57821;52.202;0.154;2023-05-21T05:08:05;102327.75;;;8.91;85.00
70407;BME280;57821;52.202;0.154;2023-05-21T05:10:32;102327.03;;;8.97;85.02
70407;BME280;57821;52.202;0.154;2023-05-21T05:12:58;102327.31;;;9.06;84.83
70407;BME280;57821;52.202;0.154;2023-05-21T05:15:26;102325.78;;;9.13;84.70
70407;BME280;57821;52.202;0.154;2023-05-21T05:17:53;102332.00;;;9.19;85.24
70407;BME280;57821;52.202;0.154;2023-05-21T05:20:19;102332.16;;;9.27;84.88
70407;BME280;57821;52.202;0.154;2023-05-21T05:22:48;102331.59;;;9.37;84.84
70407;BME280;57821;52.202;0.154;2023-05-21T05:25:14;102321.41;;;9.43;84.75
70407;BME280;57821;52.202;0.154;2023-05-21T05:27:41;102318.16;;;9.52;84.28
70407;BME280;57821;52.202;0.154;2023-05-21T05:30:08;102315.69;;;9.56;83.82
70407;BME280;57821;52.202;0.154;2023-05-21T05:32:35;102313.25;;;9.62;83.89
70407;BME280;57821;52.202;0.154;2023-05-21T05:35:02;102315.94;;;9.65;83.94
70407;BME280;57821;52.202;0.154;2023-05-21T05:37:29;102309.09;;;9.69;83.80
70407;BME280;57821;52.202;0.154;2023-05-21T05:39:55;102306.59;;;9.72;83.76
70407;BME280;57821;52.202;0.154;2023-05-21T05:42:22;102306.66;;;9.75;83.75
70407;BME280;57821;52.202;0.154;2023-05-21T05:44:48;102305.88;;;9.77;83.55
70407;BME280;57821;52.202;0.154;2023-05-21T05:47:16;102306.75;;;9.79;83.11
70407;BME280;57821;52.202;0.154;2023-05-21T05:49:43;102312.09;;;9.85;83.61
70407;BME280;57821;52.202;0.154;2023-05-21T05:52:09;102307.00;;;9.88;84.02
70407;BME280;57821;52.202;0.154;2023-05-21T05:54:36;102307.09;;;9.93;83.66
70407;BME280;57821;52.202;0.154;2023-05-21T05:57:03;102293.25;;;9.93;83.29
70407;BME280;57821;52.202;0.154;2023-05-21T05:59:30;102303.81;;;10.02;83.44
70407;BME280;57821;52.202;0.154;2023-05-21T06:01:59;102307.44;;;10.08;83.75
70407;BME280;57821;52.202;0.154;2023-05-21T06:04:25;102315.34;;;10.13;83.66
70407;BME280;57821;52.202;0.154;2023-05-21T06:06:52;102312.94;;;10.19;84.20
70407;BME280;57821;52.202;0.154;2023-05-21T06:09:18;102304.41;;;10.24;84.16
70407;BME280;57821;52.202;0.154;2023-05-21T06:11:45;102301.06;;;10.30;83.64
70407;BME280;57821;52.202;0.154;2023-05-21T06:14:12;102307.28;;;10.38;83.79
70407;BME280;57821;52.202;0.154;2023-05-21T06:16:57;102303.97;;;10.45;83.68
70407;BME280;57821;52.202;0.154;2023-05-21T06:19:45;102304.13;;;10.51;83.60
70407;BME280;57821;52.202;0.154;2023-05-21T06:22:33;102299.94;;;10.58;83.50
70407;BME280;57821;52.202;0.154;2023-05-21T06:25:21;102299.19;;;10.63;83.58
70407;BME280;57821;52.202;0.154;2023-05-21T06:28:08;102300.16;;;10.68;83.76
70407;BME280;57821;52.202;0.154;2023-05-21T06:30:55;102296.03;;;10.80;83.91
70407;BME280;57821;52.202;0.154;2023-05-21T06:33:42;102299.69;;;10.89;84.10
70407;BME280;57821;52.202;0.154;2023-05-21T06:36:29;102299.00;;;10.98;83.99
70407;BME280;57821;52.202;0.154;2023-05-21T06:39:16;102299.16;;;11.07;83.82
70407;BME280;57821;52.202;0.154;2023-05-21T06:42:03;102292.47;;;11.18;83.59
70407;BME280;57821;52.202;0.154;2023-05-21T06:45:10;102298.81;;;11.34;83.78
70407;BME280;57821;52.202;0.154;2023-05-21T06:48:01;102297.28;;;11.46;84.52
70407;BME280;57821;52.202;0.154;2023-05-21T06:50:48;102300.94;;;11.58;84.29
70407;BME280;57821;52.202;0.154;2023-05-21T06:53:35;102296.84;;;11.72;84.50
70407;BME280;57821;52.202;0.154;2023-05-21T06:56:22;102295.38;;;11.86;84.16
70407;BME280;57821;52.202;0.154;2023-05-21T06:59:12;102289.44;;;11.96;84.19
70407;BME280;57821;52.202;0.154;2023-05-21T07:01:59;102295.75;;;12.12;83.55
70407;BME280;57821;52.202;0.154;2023-05-21T07:04:49;102297.66;;;12.25;83.19
70407;BME280;57821;52.202;0.154;2023-05-21T07:07:36;102293.53;;;12.39;83.19
70407;BME280;57821;52.202;0.154;2023-05-21T07:10:23;102281.56;;;12.52;82.22
70407;BME280;57821;52.202;0.154;2023-05-21T07:13:11;102292.16;;;12.67;82.07
70407;BME280;57821;52.202;0.154;2023-05-21T07:15:58;102282.75;;;12.80;82.02
70407;BME280;57821;52.202;0.154;2023-05-21T07:18:45;102278.56;;;12.92;80.97
70407;BME280;57821;52.202;0.154;2023-05-21T07:21:33;102283.06;;;13.07;80.27
70407;BME280;57821;52.202;0.154;2023-05-21T07:24:20;102276.28;;;13.21;80.33
70407;BME280;57821;52.202;0.154;2023-05-21T07:27:07;102272.91;;;13.34;79.87
70407;BME280;57821;52.202;0.154;2023-05-21T07:30:12;102273.97;;;13.53;79.34
70407;BME280;57821;52.202;0.154;2023-05-21T07:33:00;102265.34;;;13.65;78.63
70407;BME280;57821;52.202;0.154;2023-05-21T07:35:47;102281.13;;;13.83;77.77
70407;BME280;57821;52.202;0.154;2023-05-21T07:38:34;102276.91;;;13.97;77.25
70407;BME280;57821;52.202;0.154;2023-05-21T07:41:21;102274.34;;;14.11;76.93
70407;BME280;57821;52.202;0.154;2023-05-21T07:44:09;102284.03;;;14.25;76.77
70407;BME280;57821;52.202;0.154;2023-05-21T07:47:00;102288.50;;;14.43;76.26
70407;BME280;57821;52.202;0.154;2023-05-21T07:49:48;102287.66;;;14.56;75.88
70407;BME280;57821;52.202;0.154;2023-05-21T07:52:35;102290.34;;;14.71;74.70
70407;BME280;57821;52.202;0.154;2023-05-21T07:55:22;102293.88;;;14.87;75.16
70407;BME280;57821;52.202;0.154;2023-05-21T07:58:09;102291.31;;;15.01;74.39
70407;BME280;57821;52.202;0.154;2023-05-21T08:00:56;102299.16;;;15.14;74.12
70407;BME280;57821;52.202;0.154;2023-05-21T08:03:44;102301.81;;;15.30;73.86
70407;BME280;57821;52.202;0.154;2023-05-21T08:06:32;102298.34;;;15.41;73.54
70407;BME280;57821;52.202;0.154;2023-05-21T08:09:19;102294.00;;;15.55;73.22
70407;BME280;57821;52.202;0.154;2023-05-21T08:12:06;102291.38;;;15.68;72.90
70407;BME280;57821;52.202;0.154;2023-05-21T08:14:53;102292.25;;;15.79;72.06
70407;BME280;57821;52.202;0.154;2023-05-21T08:17:42;102289.63;;;15.92;72.04
70407;BME280;57821;52.202;0.154;2023-05-21T08:20:31;102285.22;;;16.08;71.61
70407;BME280;57821;52.202;0.154;2023-05-21T08:23:18;102281.72;;;16.24;71.48
70407;BME280;57821;52.202;0.154;2023-05-21T08:26:09;102287.78;;;16.40;70.75
70407;BME280;57821;52.202;0.154;2023-05-21T08:28:58;102285.97;;;16.59;69.73
70407;BME280;57821;52.202;0.154;2023-05-21T08:31:44;102288.53;;;16.72;68.20
70407;BME280;57821;52.202;0.154;2023-05-21T08:34:31;102284.09;;;16.85;67.46
70407;BME280;57821;52.202;0.154;2023-05-21T08:37:35;102282.28;;;16.99;67.16
70407;BME280;57821;52.202;0.154;2023-05-21T08:40:33;102291.78;;;17.12;66.13
70407;BME280;57821;52.202;0.154;2023-05-21T08:43:21;102289.97;;;17.27;66.13
70407;BME280;57821;52.202;0.154;2023-05-21T08:46:08;102282.00;;;17.40;64.98
70407;BME280;57821;52.202;0.154;2023-05-21T08:49:01;102282.78;;;17.53;64.72
70407;BME280;57821;52.202;0.154;2023-05-21T08:51:49;102277.44;;;17.65;64.59
70407;BME280;57821;52.202;0.154;2023-05-21T08:54:36;102282.56;;;17.77;63.68
70407;BME280;57821;52.202;0.154;2023-05-21T08:57:24;102290.38;;;17.85;62.92
70407;BME280;57821;52.202;0.154;2023-05-21T09:00:13;102296.41;;;17.94;63.02
70407;BME280;57821;52.202;0.154;2023-05-21T09:03:03;102285.78;;;18.06;62.13
70407;BME280;57821;52.202;0.154;2023-05-21T09:05:52;102289.22;;;18.12;61.02
70407;BME280;57821;52.202;0.154;2023-05-21T09:08:43;102276.91;;;18.20;61.66
70407;BME280;57821;52.202;0.154;2023-05-21T09:11:53;102305.41;;;18.55;60.84
70407;BME280;57821;52.202;0.154;2023-05-21T09:14:41;102295.53;;;18.73;59.91
70407;BME280;57821;52.202;0.154;2023-05-21T09:17:33;102297.03;;;18.91;59.54
70407;BME280;57821;52.202;0.154;2023-05-21T09:20:33;102295.03;;;19.10;57.48
70407;BME280;57821;52.202;0.154;2023-05-21T09:23:21;102284.22;;;19.28;55.81
70407;BME280;57821;52.202;0.154;2023-05-21T09:26:11;102282.13;;;19.51;55.66
70407;BME280;57821;52.202;0.154;2023-05-21T09:28:59;102283.53;;;19.71;55.44
70407;BME280;57821;52.202;0.154;2023-05-21T09:31:46;102280.53;;;19.92;55.75
70407;BME280;57821;52.202;0.154;2023-05-21T09:34:35;102276.88;;;19.99;54.81
70407;BME280;57821;52.202;0.154;2023-05-21T09:37:22;102269.81;;;20.02;54.72
70407;BME280;57821;52.202;0.154;2023-05-21T09:40:22;102265.34;;;20.06;53.40
70407;BME280;57821;52.202;0.154;2023-05-21T09:43:13;102272.72;;;20.35;53.68
70407;BME280;57821;52.202;0.154;2023-05-21T09:46:00;102272.00;;;20.68;52.82
70407;BME280;57821;52.202;0.154;2023-05-21T09:48:51;102278.25;;;21.03;52.36
70407;BME280;57821;52.202;0.154;2023-05-21T09:51:42;102266.84;;;21.39;50.98
70407;BME280;57821;52.202;0.154;2023-05-21T09:54:31;102281.66;;;21.79;49.97
70407;BME280;57821;52.202;0.154;2023-05-21T09:57:28;102274.13;;;21.99;48.48
70407;BME280;57821;52.202;0.154;2023-05-21T10:00:26;102262.78;;;22.26;48.86
70407;BME280;57821;52.202;0.154;2023-05-21T10:03:14;102260.97;;;22.59;47.95
70407;BME280;57821;52.202;0.154;2023-05-21T10:06:02;102262.38;;;22.71;46.92
70407;BME280;57821;52.202;0.154;2023-05-21T10:08:52;102250.63;;;22.81;45.56
70407;BME280;57821;52.202;0.154;2023-05-21T10:11:43;102267.38;;;23.08;45.77
70407;BME280;57821;52.202;0.154;2023-05-21T10:14:31;102259.22;;;23.42;45.08
70407;BME280;57821;52.202;0.154;2023-05-21T10:17:18;102261.34;;;23.58;43.37
70407;BME280;57821;52.202;0.154;2023-05-21T10:20:07;102263.25;;;23.53;42.16
70407;BME280;57821;52.202;0.154;2023-05-21T10:22:57;102254.00;;;23.40;43.22
70407;BME280;57821;52.202;0.154;2023-05-21T10:25:44;102250.28;;;23.46;41.79
70407;BME280;57821;52.202;0.154;2023-05-21T10:28:32;102252.66;;;23.53;39.83
70407;BME280;57821;52.202;0.154;2023-05-21T10:31:19;102240.78;;;23.65;39.67
70407;BME280;57821;52.202;0.154;2023-05-21T10:34:06;102247.13;;;23.86;39.36
70407;BME280;57821;52.202;0.154;2023-05-21T10:36:53;102243.47;;;24.13;39.40
70407;BME280;57821;52.202;0.154;2023-05-21T10:39:42;102242.97;;;24.28;39.37
70407;BME280;57821;52.202;0.154;2023-05-21T10:48:17;102241.97;;;24.99;36.85
70407;BME280;57821;52.202;0.154;2023-05-21T11:00:37;102218.00;;;25.85;33.63
70407;BME280;57821;52.202;0.154;2023-05-21T11:03:25;102226.19;;;25.99;33.05
70407;BME280;57821;52.202;0.154;2023-05-21T11:06:21;102213.50;;;26.05;32.41
70407;BME280;57821;52.202;0.154;2023-05-21T11:09:12;102215.59;;;26.17;32.30
70407;BME280;57821;52.202;0.154;2023-05-21T11:11:59;102224.84;;;26.29;32.17
70407;BME280;57821;52.202;0.154;2023-05-21T11:14:56;102213.47;;;26.44;31.32
70407;BME280;57821;52.202;0.154;2023-05-21T11:17:43;102216.22;;;26.62;32.00
70407;BME280;57821;52.202;0.154;2023-05-21T11:20:33;102193.63;;;26.70;32.22
70407;BME280;57821;52.202;0.154;2023-05-21T11:23:20;102209.59;;;26.89;32.36
70407;BME280;57821;52.202;0.154;2023-05-21T11:26:07;102202.44;;;27.08;31.64
70407;BME280;57821;52.202;0.154;2023-05-21T11:32:00;102200.00;;;27.21;30.41
70407;BME280;57821;52.202;0.154;2023-05-21T11:34:47;102204.31;;;27.23;30.59
70407;BME280;57821;52.202;0.154;2023-05-21T11:37:34;102204.88;;;27.30;30.77
70407;BME280;57821;52.202;0.154;2023-05-21T11:40:25;102191.25;;;27.36;30.53
70407;BME280;57821;52.202;0.154;2023-05-21T11:43:12;102193.34;;;27.47;29.50
70407;BME280;57821;52.202;0.154;2023-05-21T11:45:59;102188.72;;;27.50;29.78
70407;BME280;57821;52.202;0.154;2023-05-21T11:48:47;102194.47;;;27.43;29.81
70407;BME280;57821;52.202;0.154;2023-05-21T11:51:35;102185.38;;;27.29;29.43
70407;BME280;57821;52.202;0.154;2023-05-21T11:54:22;102187.53;;;27.21;30.05
70407;BME280;57821;52.202;0.154;2023-05-21T11:57:09;102192.41;;;27.13;29.94
70407;BME280;57821;52.202;0.154;2023-05-21T11:59:58;102177.91;;;27.02;29.76
70407;BME280;57821;52.202;0.154;2023-05-21T12:02:49;102195.19;;;26.93;29.41
70407;BME280;57821;52.202;0.154;2023-05-21T12:05:46;102177.66;;;26.70;28.83
70407;BME280;57821;52.202;0.154;2023-05-21T12:08:34;102188.84;;;26.41;30.14
70407;BME280;57821;52.202;0.154;2023-05-21T12:11:21;102175.72;;;26.17;29.84
70407;BME280;57821;52.202;0.154;2023-05-21T12:14:09;102179.50;;;25.93;29.37
70407;BME280;57821;52.202;0.154;2023-05-21T12:16:56;102177.78;;;25.52;30.09
70407;BME280;57821;52.202;0.154;2023-05-21T12:19:45;102157.75;;;25.04;31.25
70407;BME280;57821;52.202;0.154;2023-05-21T12:22:32;102162.31;;;24.79;31.31
70407;BME280;57821;52.202;0.154;2023-05-21T12:25:19;102167.00;;;24.50;32.13
70407;BME280;57821;52.202;0.154;2023-05-21T12:28:07;102153.28;;;24.16;32.56
70407;BME280;57821;52.202;0.154;2023-05-21T12:30:53;102154.31;;;23.89;33.14
70407;BME280;57821;52.202;0.154;2023-05-21T12:33:43;102159.44;;;23.70;33.63
70407;BME280;57821;52.202;0.154;2023-05-21T12:36:30;102157.50;;;23.50;33.06
70407;BME280;57821;52.202;0.154;2023-05-21T12:39:18;102151.41;;;23.22;34.21
70407;BME280;57821;52.202;0.154;2023-05-21T12:42:05;102148.50;;;23.03;34.58
70407;BME280;57821;52.202;0.154;2023-05-21T12:44:53;102146.44;;;22.86;34.80
70407;BME280;57821;52.202;0.154;2023-05-21T12:47:40;102141.69;;;22.68;35.30
70407;BME280;57821;52.202;0.154;2023-05-21T12:50:26;102129.69;;;22.58;35.68
70407;BME280;57821;52.202;0.154;2023-05-21T12:53:13;102128.88;;;22.56;35.68
70407;BME280;57821;52.202;0.154;2023-05-21T12:56:11;102124.09;;;22.41;35.98
70407;BME280;57821;52.202;0.154;2023-05-21T12:58:58;102120.53;;;22.42;36.17
70407;BME280;57821;52.202;0.154;2023-05-21T13:01:46;102132.03;;;22.39;36.25
70407;BME280;57821;52.202;0.154;2023-05-21T13:04:35;102129.44;;;22.38;36.32
70407;BME280;57821;52.202;0.154;2023-05-21T13:07:26;102126.00;;;22.36;36.62
70407;BME280;57821;52.202;0.154;2023-05-21T13:10:13;102129.56;;;22.35;37.04
70407;BME280;57821;52.202;0.154;2023-05-21T13:13:00;102132.16;;;22.36;37.38
70407;BME280;57821;52.202;0.154;2023-05-21T13:15:47;102120.28;;;22.49;37.15
70407;BME280;57821;52.202;0.154;2023-05-21T13:18:34;102128.88;;;22.56;37.29
70407;BME280;57821;52.202;0.154;2023-05-21T13:21:21;102126.84;;;22.64;36.99
70407;BME280;57821;52.202;0.154;2023-05-21T13:24:08;102127.09;;;22.84;37.33
70407;BME280;57821;52.202;0.154;2023-05-21T13:26:55;102132.59;;;23.05;37.33
70407;BME280;57821;52.202;0.154;2023-05-21T13:29:42;102125.03;;;23.19;37.51
70407;BME280;57821;52.202;0.154;2023-05-21T13:32:29;102129.31;;;23.23;37.44
70407;BME280;57821;52.202;0.154;2023-05-21T13:35:16;102129.19;;;23.26;37.21
70407;BME280;57821;52.202;0.154;2023-05-21T13:38:03;102136.44;;;23.21;37.51
70407;BME280;57821;52.202;0.154;2023-05-21T13:40:50;102129.53;;;23.17;37.82
70407;BME280;57821;52.202;0.154;2023-05-21T13:43:37;102131.97;;;23.23;37.75
70407;BME280;57821;52.202;0.154;2023-05-21T13:46:24;102131.81;;;23.27;37.72
70407;BME280;57821;52.202;0.154;2023-05-21T13:49:11;102137.91;;;23.29;38.23
70407;BME280;57821;52.202;0.154;2023-05-21T13:51:58;102131.84;;;23.26;38.03
70407;BME280;57821;52.202;0.154;2023-05-21T13:54:45;102129.53;;;23.17;38.20
70407;BME280;57821;52.202;0.154;2023-05-21T13:57:32;102132.25;;;23.14;38.53
70407;BME280;57821;52.202;0.154;2023-05-21T14:00:19;102127.63;;;23.20;38.23
70407;BME280;57821;52.202;0.154;2023-05-21T14:03:06;102130.19;;;23.48;38.76
70407;BME280;57821;52.202;0.154;2023-05-21T14:05:53;102127.72;;;23.92;38.19
70407;BME280;57821;52.202;0.154;2023-05-21T14:08:41;102135.94;;;24.52;36.72
70407;BME280;57821;52.202;0.154;2023-05-21T14:11:29;102121.31;;;25.08;36.57
70407;BME280;57821;52.202;0.154;2023-05-21T14:14:17;102140.88;;;25.46;36.00
70407;BME280;57821;52.202;0.154;2023-05-21T14:17:04;102138.88;;;26.10;36.29